createdAt,value
2022-08-22T00:01:31.440Z,88.02
2022-08-22T00:03:08.536Z,83.91
2022-08-22T00:06:51.207Z,86.00
2022-08-22T00:12:00.149Z,85.51
2022-08-22T00:17:32.118Z,85.08
2022-08-22T00:22:36.751Z,87.33
2022-08-22T00:27:46.857Z,86.07
2022-08-22T00:32:57.358Z,86.00
2022-08-22T00:38:19.983Z,86.82
2022-08-22T00:43:54.675Z,86.76
2022-08-22T00:49:19.279Z,87.01
2022-08-22T00:54:32.834Z,87.35
2022-08-22T00:59:42.662Z,88.26
2022-08-22T01:04:58.481Z,89.42
2022-08-22T01:10:22.069Z,89.78
2022-08-22T01:15:27.084Z,90.76
2022-08-22T01:20:28.588Z,90.12
2022-08-22T01:25:48.748Z,90.06
2022-08-22T01:31:10.823Z,91.33
2022-08-22T01:36:33.884Z,90.36
2022-08-22T01:41:59.578Z,88.39
2022-08-22T01:47:06.275Z,87.76
2022-08-22T01:52:11.711Z,89.76
2022-08-22T01:57:13.813Z,89.15
2022-08-22T02:02:37.064Z,90.58
2022-08-22T02:07:54.748Z,90.89
2022-08-22T02:13:08.522Z,90.91
2022-08-22T02:18:23.482Z,88.50
2022-08-22T02:23:30.619Z,89.07
2022-08-22T02:28:56.511Z,89.00
2022-08-22T02:34:02.425Z,90.00
2022-08-22T02:39:10.373Z,91.55
2022-08-22T02:44:24.347Z,90.11
2022-08-22T02:49:43.911Z,89.72
2022-08-22T02:54:45.651Z,91.54
2022-08-22T03:00:31.335Z,91.38
2022-08-22T03:05:36.810Z,90.38
2022-08-22T03:10:41.661Z,91.38
2022-08-22T03:15:55.090Z,92.10
2022-08-22T03:21:16.879Z,91.80
2022-08-22T03:26:26.056Z,92.05
2022-08-22T03:31:29.245Z,92.11
2022-08-22T03:36:32.011Z,90.87
2022-08-22T03:41:36.467Z,91.53
2022-08-22T03:47:02.833Z,91.88
2022-08-22T03:52:28.611Z,90.37
2022-08-22T03:57:41.966Z,90.44
2022-08-22T04:02:44.361Z,90.25
2022-08-22T04:08:26.130Z,88.51
2022-08-22T04:13:55.656Z,89.70
2022-08-22T04:19:05.720Z,88.89
2022-08-22T04:24:51.976Z,89.27
2022-08-22T04:30:04.482Z,88.43
2022-08-22T04:35:27.533Z,89.00
2022-08-22T04:40:35.140Z,88.47
2022-08-22T04:45:46.186Z,87.82
2022-08-22T04:50:55.010Z,88.41
2022-08-22T04:56:17.417Z,88.35
2022-08-22T05:01:47.973Z,87.90
2022-08-22T05:06:56.879Z,87.16
2022-08-22T05:12:03.872Z,87.78
2022-08-22T05:17:08.335Z,88.06
2022-08-22T05:22:19.200Z,87.85
2022-08-22T05:27:25.246Z,87.38
2022-08-22T05:32:34.683Z,86.68
2022-08-22T05:37:49.756Z,87.63
2022-08-22T05:42:52.553Z,87.46
2022-08-22T05:48:08.936Z,87.16
2022-08-22T05:53:17.463Z,86.13
2022-08-22T05:58:45.491Z,86.37
2022-08-22T06:03:56.969Z,84.99
2022-08-22T06:09:04.874Z,85.36
2022-08-22T06:14:28.348Z,83.10
2022-08-22T06:19:33.655Z,83.20
2022-08-22T06:24:37.511Z,82.67
2022-08-22T06:29:45.935Z,82.15
2022-08-22T06:34:47.713Z,81.30
2022-08-22T06:39:52.476Z,80.80
2022-08-22T06:45:07.068Z,79.17
2022-08-22T06:50:16.566Z,79.14
2022-08-22T06:55:18.381Z,78.65
2022-08-22T07:00:20.429Z,78.29
2022-08-22T07:05:28.628Z,77.30
2022-08-22T07:10:30.237Z,77.21
2022-08-22T07:15:36.570Z,76.08
2022-08-22T07:20:41.993Z,73.97
2022-08-22T07:26:16.809Z,73.93
2022-08-22T07:31:41.242Z,74.04
2022-08-22T07:37:03.447Z,73.36
2022-08-22T07:42:11.293Z,73.67
2022-08-22T07:47:17.976Z,72.71
2022-08-22T07:52:43.889Z,72.25
2022-08-22T07:57:54.763Z,71.96
2022-08-22T08:03:01.497Z,72.02
2022-08-22T08:08:08.442Z,71.57
2022-08-22T08:13:20.845Z,71.97
2022-08-22T08:18:26.037Z,71.30
2022-08-22T08:23:35.798Z,71.23
2022-08-22T08:28:44.403Z,70.42
2022-08-22T08:33:48.692Z,70.49
2022-08-22T08:38:58.104Z,70.08
2022-08-22T08:44:14.621Z,70.04
2022-08-22T08:49:29.465Z,70.01
2022-08-22T08:55:00.223Z,69.90
2022-08-22T09:00:13.415Z,69.38
2022-08-22T09:05:52.115Z,69.63
2022-08-22T09:11:09.566Z,68.72
2022-08-22T09:16:31.635Z,68.70
2022-08-22T09:22:04.259Z,67.82
2022-08-22T09:27:15.962Z,64.93
2022-08-22T09:32:21.400Z,64.41
2022-08-22T09:37:55.049Z,64.45
2022-08-22T09:43:13.715Z,63.08
2022-08-22T09:48:48.718Z,63.70
2022-08-22T09:54:05.447Z,64.25
2022-08-22T09:59:12.284Z,63.10
2022-08-22T10:04:31.378Z,62.27
2022-08-22T10:09:53.603Z,61.61
2022-08-22T10:15:23.372Z,60.21
2022-08-22T10:20:31.544Z,60.65
2022-08-22T10:25:42.448Z,60.53
2022-08-22T10:31:02.077Z,59.67
2022-08-22T10:36:13.167Z,58.64
2022-08-22T10:41:26.710Z,59.11
2022-08-22T10:46:39.053Z,59.00
2022-08-22T10:51:52.030Z,59.07
2022-08-22T10:57:25.725Z,57.53
2022-08-22T11:02:36.401Z,58.87
2022-08-22T11:07:48.428Z,58.79
2022-08-22T11:13:12.659Z,58.89
2022-08-22T11:18:14.757Z,57.25
2022-08-22T11:23:46.129Z,57.23
2022-08-22T11:29:02.846Z,56.20
2022-08-22T11:34:39.166Z,55.73
2022-08-22T11:39:58.420Z,56.32
2022-08-22T11:45:02.618Z,56.44
2022-08-22T11:50:13.272Z,56.54
2022-08-22T11:55:32.626Z,56.71
2022-08-22T12:00:50.726Z,56.62
2022-08-22T12:06:09.622Z,57.11
2022-08-22T12:11:39.229Z,55.88
2022-08-22T12:17:02.425Z,56.66
2022-08-22T12:22:14.422Z,57.66
2022-08-22T12:27:29.047Z,57.05
2022-08-22T12:33:09.813Z,57.13
2022-08-22T12:38:42.427Z,56.84
2022-08-22T12:43:59.081Z,56.59
2022-08-22T12:49:23.575Z,56.69
2022-08-22T12:54:49.700Z,56.23
2022-08-22T12:59:59.339Z,55.70
2022-08-22T13:05:19.936Z,55.55
2022-08-22T13:10:51.828Z,56.01
2022-08-22T13:15:58.896Z,56.13
2022-08-22T13:21:05.751Z,55.48
2022-08-22T13:26:10.472Z,54.80
2022-08-22T13:31:34.587Z,54.70
2022-08-22T13:36:51.720Z,54.79
2022-08-22T13:42:01.161Z,55.31
2022-08-22T13:47:14.143Z,55.54
2022-08-22T13:52:39.112Z,55.06
2022-08-22T13:57:53.991Z,55.39
2022-08-22T14:03:05.645Z,55.52
2022-08-22T14:08:16.253Z,55.86
2022-08-22T14:13:31.097Z,54.90
2022-08-22T14:18:45.657Z,55.52
2022-08-22T14:23:51.557Z,55.52
2022-08-22T14:28:56.584Z,55.80
2022-08-22T14:34:03.509Z,55.34
2022-08-22T14:39:11.182Z,55.53
2022-08-22T14:44:18.939Z,55.80
2022-08-22T14:49:29.290Z,55.84
2022-08-22T14:54:32.777Z,54.12
2022-08-22T14:59:43.522Z,54.54
2022-08-22T15:04:48.186Z,55.61
2022-08-22T15:10:06.203Z,56.23
2022-08-22T15:15:10.682Z,57.14
2022-08-22T15:20:27.974Z,56.86
2022-08-22T15:25:42.754Z,56.76
2022-08-22T15:30:57.987Z,57.41
2022-08-22T15:36:22.644Z,57.43
2022-08-22T15:41:31.485Z,57.15
2022-08-22T15:46:42.256Z,57.30
2022-08-22T15:51:59.051Z,57.62
2022-08-22T15:57:12.894Z,57.35
2022-08-22T16:02:37.020Z,57.63
2022-08-22T16:07:38.557Z,56.57
2022-08-22T16:12:45.908Z,55.34
2022-08-22T16:17:53.304Z,55.19
2022-08-22T16:22:57.915Z,55.58
2022-08-22T16:27:59.945Z,56.32
2022-08-22T16:33:02.503Z,55.97
2022-08-22T16:38:04.256Z,56.49
2022-08-22T16:43:12.268Z,56.71
2022-08-22T16:48:40.985Z,57.27
2022-08-22T16:54:10.420Z,57.10
2022-08-22T16:59:24.128Z,57.37
2022-08-22T17:04:52.989Z,57.98
2022-08-22T17:10:26.909Z,57.80
2022-08-22T17:15:28.381Z,57.95
2022-08-22T17:21:04.193Z,58.15
2022-08-22T17:26:18.027Z,58.25
2022-08-22T17:31:36.938Z,58.90
2022-08-22T17:36:41.493Z,59.10
2022-08-22T17:41:51.266Z,59.17
2022-08-22T17:47:02.352Z,59.95
2022-08-22T17:52:16.105Z,60.42
2022-08-22T17:57:46.849Z,60.76
2022-08-22T18:03:00.862Z,61.08
2022-08-22T18:08:37.597Z,61.23
2022-08-22T18:13:55.428Z,61.09
2022-08-22T18:19:24.107Z,61.58
2022-08-22T18:24:34.560Z,60.73
2022-08-22T18:30:00.551Z,61.97
2022-08-22T18:35:09.112Z,62.23
2022-08-22T18:40:36.843Z,62.77
2022-08-22T18:45:51.746Z,62.14
2022-08-22T18:51:24.423Z,63.25
2022-08-22T18:56:36.653Z,61.87
2022-08-22T19:01:50.262Z,62.29
2022-08-22T19:07:13.722Z,62.11
2022-08-22T19:12:35.537Z,62.66
2022-08-22T19:17:58.743Z,63.26
2022-08-22T19:23:31.852Z,65.14
2022-08-22T19:28:37.357Z,66.68
2022-08-22T19:33:40.617Z,65.84
2022-08-22T19:38:56.814Z,65.57
2022-08-22T19:43:58.383Z,65.36
2022-08-22T19:48:59.944Z,65.61
2022-08-22T19:54:01.440Z,65.55
2022-08-22T19:59:21.785Z,64.79
2022-08-22T20:04:23.293Z,65.10
2022-08-22T20:09:42.652Z,67.08
2022-08-22T20:14:46.620Z,67.25
2022-08-22T20:25:44.387Z,70.03
2022-08-22T20:30:46.794Z,73.83
2022-08-22T20:35:55.021Z,77.74
2022-08-22T20:41:11.082Z,76.33
2022-08-22T20:46:43.556Z,78.04
2022-08-22T20:52:01.130Z,78.02
2022-08-22T20:57:13.917Z,76.61
2022-08-22T21:02:23.398Z,75.31
2022-08-22T21:07:30.219Z,81.37
2022-08-22T21:12:31.913Z,83.50
2022-08-22T21:17:34.345Z,83.48
2022-08-22T21:22:37.130Z,82.59
2022-08-22T21:27:39.003Z,84.92
2022-08-22T21:32:43.623Z,87.20
2022-08-22T21:37:45.972Z,90.23
2022-08-22T21:43:06.917Z,88.71
2022-08-22T21:48:34.632Z,91.22
2022-08-22T21:53:36.236Z,85.71
2022-08-22T21:58:41.888Z,83.28
2022-08-22T22:03:43.480Z,85.43
2022-08-22T22:08:47.446Z,87.28
2022-08-22T22:13:49.238Z,91.47
2022-08-22T22:18:50.843Z,90.50
2022-08-22T22:23:52.586Z,92.05
2022-08-22T22:28:54.576Z,87.61
2022-08-22T22:33:56.311Z,90.92
2022-08-22T22:38:57.931Z,91.32
2022-08-22T22:43:59.491Z,93.16
2022-08-22T22:49:01.156Z,91.88
2022-08-22T22:54:02.751Z,91.98
2022-08-22T22:59:13.001Z,91.65
2022-08-22T23:04:16.438Z,93.48
2022-08-22T23:09:18.034Z,94.25
2022-08-22T23:14:19.803Z,94.84
2022-08-22T23:19:21.358Z,96.33
2022-08-22T23:24:23.751Z,96.57
2022-08-22T23:29:25.848Z,98.12
2022-08-22T23:34:33.608Z,97.96
2022-08-22T23:39:38.145Z,95.98
2022-08-22T23:44:40.723Z,94.87
2022-08-22T23:49:43.120Z,96.01
2022-08-22T23:54:44.739Z,97.05
2022-08-22T23:59:57.224Z,97.18
